TAPATNCM

Guest
Details From TAPA - Antigua - V C Bird Intl
To TNCM - St Maarten - Princess Juliana Intl
Flight Number -
Tags generated
Created
Modified
Stats Distance 93 nm / 172 km
Max Altitude 8,400 ft / 2,560 m
Waypoints 3
Social Downloads 3
Likes 0
Share VATSIM

Download

Looking for another format? Having issues loading an existing format? Contact us
Advertisement - Login to hide

Notes

Basic altitude profile: - Ascent Rate: 2500ft/min - Ascent Speed: 250kts - Cruise Altitude: 35000ft - Cruise Speed: 420kts - Descent Rate: 1500ft/min - Descent Speed: 250kts Options: - Use NATs: no - Use PACOTS: no - Use low airways: yes - Use high airways: yes

Route

TAPA ELOPO TNCM

ID Type Via Altitude Latitude Longitude Leg Dist Tot Dist Heading (true) Name
O TAPA APT - 0 ft / 0 m 17.13674˚ -61.79266˚ - 0 nm - Antigua - V C Bird Intl
ELOPO FIX - 8,400 ft / 2,560 m 17.65006˚ -62.55439˚ 53 nm 53 nm 305° / 305° -
O TNCM APT - 0 ft / 0 m 18.04089˚ -63.10897˚ 39 nm 92 nm 307° / 306° St Maarten - Princess Juliana Intl

Altitude Profile

Advertisement - Login to hide

TAPA

Details ICAO TAPA (ANU)
Name Antigua - V C Bird Intl
Region Antigua and Barbuda
Timezone America/Antigua (UTC-4.0)
Stats Elevation 62 ft / 19 m (AMSL)
Location 17.136737° -61.792662°
Runways 1
Magnetic Variation 14.766° W

METAR

TAPA 111100Z 08005KT 9999 BKN015 24/22 Q1012 NOSIG

Decode

TAF

TAF TAPA 110500Z 1106/1206 07010KT 9999 SCT019 SCT038 PROB40 TEMPO 1106/1118 SHRA

Decode

Departure Runways

ID Width Length Bearing (true) Bearing (mag) Surface Threshold Offset Overrun Length
07 148 ft / 45 m 9,022 ft / 2,750 m 58.28° 73.05° Asphalt 656 ft / 200 m 0 ft / 0 m
25 148 ft / 45 m 9,022 ft / 2,750 m 238.29° 253.06° Asphalt 0 ft / 0 m 0 ft / 0 m

TNCM

Details ICAO TNCM (SXM)
Name St Maarten - Princess Juliana Intl
Region Caribbean Netherlands, Aruba, Curaçao, Sint Maarten
Timezone Unknown (UTC+0.0)
Stats Elevation 12 ft / 4 m (AMSL)
Location 18.040889° -63.108974°
Runways 1
Magnetic Variation 14.325° W

METAR

TNCM 111100Z 05010KT 9999 FEW020 25/21 Q1013 A2992 NOSIG

Decode

TAF

TAF TNCM 110540Z 1106/1206 06010KT P6SM VCSH SCT018 SCT035

Decode

Destination Runways

ID Width Length Bearing (true) Bearing (mag) Surface Threshold Offset Overrun Length
10 148 ft / 45 m 7,464 ft / 2,275 m 81.43° 95.75° Asphalt 0 ft / 0 m 151 ft / 46 m
28 148 ft / 45 m 7,464 ft / 2,275 m 261.44° 275.76° Asphalt 397 ft / 121 m 0 ft / 0 m

Popular Alternatives